createdAt,value
2022-11-11T00:01:32.715Z,19.65
2022-11-11T00:04:18.463Z,18.17
2022-11-11T00:07:04.440Z,20.83
2022-11-11T00:09:49.950Z,20.83
2022-11-11T00:12:35.292Z,17.67
2022-11-11T00:15:20.976Z,18.55
2022-11-11T00:18:25.745Z,19.48
2022-11-11T00:21:33.113Z,17.08
2022-11-11T00:24:53.030Z,20.90
2022-11-11T00:27:39.562Z,15.18
2022-11-11T00:30:25.154Z,18.38
2022-11-11T00:33:13.284Z,24.52
2022-11-11T00:35:59.065Z,19.73
2022-11-11T00:38:47.260Z,21.95
2022-11-11T00:41:35.917Z,18.83
2022-11-11T00:44:21.456Z,16.35
2022-11-11T00:47:25.814Z,28.92
2022-11-11T00:50:39.298Z,17.63
2022-11-11T00:53:28.581Z,19.75
2022-11-11T00:56:18.494Z,18.13
2022-11-11T00:59:08.630Z,18.05
2022-11-11T01:01:54.223Z,16.90
2022-11-11T01:04:40.196Z,17.13
2022-11-11T01:07:25.521Z,16.60
2022-11-11T01:10:11.636Z,18.40
2022-11-11T01:13:12.306Z,18.75
2022-11-11T01:16:18.347Z,22.83
2022-11-11T01:19:07.106Z,17.52
2022-11-11T01:21:52.491Z,15.30
2022-11-11T01:24:39.098Z,18.48
2022-11-11T01:27:27.640Z,16.95
2022-11-11T01:30:14.298Z,18.23
2022-11-11T01:33:00.783Z,20.98
2022-11-11T01:35:47.774Z,20.73
2022-11-11T01:38:33.791Z,17.77
2022-11-11T01:41:35.051Z,19.52
2022-11-11T01:44:46.348Z,21.75
2022-11-11T01:48:21.738Z,17.73
2022-11-11T01:50:58.960Z,24.35
2022-11-11T01:53:46.340Z,22.70
2022-11-11T01:56:37.595Z,22.40
2022-11-11T01:59:24.393Z,22.38
2022-11-11T02:02:38.664Z,24.40
2022-11-11T02:05:45.526Z,23.05
2022-11-11T02:08:39.210Z,20.40
2022-11-11T02:11:44.495Z,21.88
2022-11-11T02:14:36.001Z,20.23
2022-11-11T02:17:21.811Z,20.08
2022-11-11T02:20:11.151Z,21.58
2022-11-11T02:23:04.949Z,16.85
2022-11-11T02:25:53.860Z,19.92
2022-11-11T02:28:39.934Z,21.35
2022-11-11T02:31:29.721Z,21.58
2022-11-11T02:34:15.300Z,21.23
2022-11-11T02:37:06.444Z,20.38
2022-11-11T02:40:06.032Z,18.45
2022-11-11T02:42:54.244Z,18.45
2022-11-11T02:45:39.965Z,22.02
2022-11-11T02:48:26.810Z,19.80
2022-11-11T02:51:12.495Z,15.50
2022-11-11T02:54:03.442Z,17.92
2022-11-11T02:57:07.596Z,19.02
2022-11-11T02:59:53.554Z,18.58
2022-11-11T03:02:38.948Z,14.60
2022-11-11T03:05:24.751Z,21.80
2022-11-11T03:08:10.745Z,19.05
2022-11-11T03:10:57.173Z,17.77
2022-11-11T03:13:42.819Z,21.80
2022-11-11T03:16:46.375Z,18.00
2022-11-11T03:19:31.809Z,19.53
2022-11-11T03:25:38.796Z,17.35
2022-11-11T03:28:26.378Z,25.73
2022-11-11T03:31:14.638Z,20.77
2022-11-11T03:34:18.492Z,26.40
2022-11-11T03:37:28.792Z,15.25
2022-11-11T03:40:14.585Z,20.27
2022-11-11T03:43:04.141Z,20.80
2022-11-11T03:45:56.111Z,14.43
2022-11-11T03:48:41.870Z,19.75
2022-11-11T03:51:27.373Z,15.85
2022-11-11T03:54:13.492Z,17.52
2022-11-11T03:57:19.030Z,18.92
2022-11-11T04:00:13.435Z,17.02
2022-11-11T04:03:29.608Z,15.27
2022-11-11T04:06:33.758Z,21.75
2022-11-11T04:09:37.766Z,20.52
2022-11-11T04:12:24.103Z,21.70
2022-11-11T04:15:28.824Z,16.25
2022-11-11T04:18:14.458Z,14.90
2022-11-11T04:21:18.625Z,19.98
2022-11-11T04:24:24.775Z,19.10
2022-11-11T04:27:13.389Z,17.20
2022-11-11T04:29:59.333Z,16.85
2022-11-11T04:32:47.701Z,15.70
2022-11-11T04:35:33.234Z,16.08
2022-11-11T04:38:37.475Z,17.38
2022-11-11T04:41:25.750Z,15.70
2022-11-11T04:44:32.183Z,18.08
2022-11-11T04:47:17.466Z,17.58
2022-11-11T04:50:07.137Z,19.88
2022-11-11T04:52:54.618Z,18.20
2022-11-11T04:56:00.194Z,18.60
2022-11-11T04:58:46.788Z,15.23
2022-11-11T05:01:50.841Z,16.42
2022-11-11T05:04:36.422Z,17.35
2022-11-11T05:07:40.297Z,20.77
2022-11-11T05:10:25.684Z,20.45
2022-11-11T05:13:32.070Z,17.55
2022-11-11T05:16:43.781Z,14.50
2022-11-11T05:19:47.775Z,18.67
2022-11-11T05:22:41.154Z,18.45
2022-11-11T05:25:26.837Z,22.42
2022-11-11T05:28:12.283Z,19.42
2022-11-11T05:30:57.850Z,20.92
2022-11-11T05:33:43.224Z,16.55
2022-11-11T05:36:29.048Z,18.67
2022-11-11T05:39:14.624Z,20.08
2022-11-11T05:42:00.037Z,18.48
2022-11-11T05:44:48.947Z,19.25
2022-11-11T05:47:34.606Z,18.42
2022-11-11T05:50:19.654Z,17.92
2022-11-11T05:53:05.301Z,15.57
2022-11-11T05:55:53.437Z,21.35
2022-11-11T05:58:39.021Z,19.83
2022-11-11T06:01:26.929Z,21.77
2022-11-11T06:04:17.713Z,19.67
2022-11-11T06:07:04.787Z,19.25
2022-11-11T06:09:50.665Z,18.38
2022-11-11T06:13:02.403Z,24.77
2022-11-11T06:15:48.335Z,17.10
2022-11-11T06:18:34.406Z,19.55
2022-11-11T06:21:20.224Z,19.83
2022-11-11T06:24:05.950Z,23.92
2022-11-11T06:26:51.232Z,16.00
2022-11-11T06:29:37.132Z,16.25
2022-11-11T06:32:26.041Z,16.88
2022-11-11T06:35:13.130Z,21.30
2022-11-11T06:37:58.678Z,20.63
2022-11-11T06:40:44.766Z,16.40
2022-11-11T06:43:30.957Z,17.42
2022-11-11T06:46:24.809Z,16.85
2022-11-11T06:49:13.426Z,18.77
2022-11-11T06:52:05.808Z,16.95
2022-11-11T06:54:51.899Z,16.25
2022-11-11T06:57:40.372Z,20.23
2022-11-11T07:00:25.449Z,15.48
2022-11-11T07:03:25.280Z,17.45
2022-11-11T07:06:11.764Z,20.02
2022-11-11T07:08:57.020Z,16.52
2022-11-11T07:11:42.714Z,16.02
2022-11-11T07:14:28.231Z,17.45
2022-11-11T07:17:13.965Z,17.10
2022-11-11T07:19:59.515Z,23.35
2022-11-11T07:22:44.974Z,19.50
2022-11-11T07:25:33.092Z,16.15
2022-11-11T07:28:19.133Z,16.08
2022-11-11T07:31:04.744Z,19.30
2022-11-11T07:33:50.264Z,14.48
2022-11-11T07:36:36.583Z,14.05
2022-11-11T07:39:25.550Z,15.10
2022-11-11T07:42:30.235Z,15.57
2022-11-11T07:45:17.037Z,15.88
2022-11-11T07:48:02.442Z,13.18
2022-11-11T07:50:48.451Z,15.63
2022-11-11T07:53:34.181Z,14.95
2022-11-11T07:56:23.167Z,15.73
2022-11-11T07:59:08.531Z,15.52
2022-11-11T08:01:54.015Z,12.23
2022-11-11T08:04:42.809Z,18.20
2022-11-11T08:07:28.474Z,14.50
2022-11-11T08:10:13.678Z,15.07
2022-11-11T08:13:18.487Z,14.77
2022-11-11T08:18:54.367Z,12.32
2022-11-11T08:21:39.949Z,13.85
2022-11-11T08:27:31.244Z,16.95
2022-11-11T08:30:17.053Z,15.38
2022-11-11T08:33:31.869Z,39.92
2022-11-11T08:36:16.266Z,14.98
2022-11-11T08:39:05.910Z,12.27
2022-11-11T08:41:52.314Z,13.55
2022-11-11T08:44:37.732Z,15.45
2022-11-11T08:47:24.952Z,16.40
2022-11-11T08:50:10.932Z,14.80
2022-11-11T08:53:00.198Z,17.83
2022-11-11T08:55:45.533Z,14.35
2022-11-11T08:58:31.317Z,13.77
2022-11-11T09:01:16.598Z,16.33
2022-11-11T09:04:29.664Z,22.63
2022-11-11T09:07:09.317Z,15.30
2022-11-11T09:09:54.612Z,17.10
2022-11-11T09:12:40.089Z,18.13
2022-11-11T09:15:26.708Z,24.33
2022-11-11T09:18:12.062Z,24.08
2022-11-11T09:20:59.909Z,20.80
2022-11-11T09:23:47.098Z,23.92
2022-11-11T09:26:38.233Z,21.00
2022-11-11T09:29:26.986Z,19.10
2022-11-11T09:32:12.289Z,19.55
2022-11-11T09:34:58.003Z,18.30
2022-11-11T09:37:53.498Z,20.15
2022-11-11T09:41:00.706Z,65.30
2022-11-11T09:44:16.744Z,15.30
2022-11-11T09:47:21.917Z,19.88
2022-11-11T09:50:13.897Z,18.70
2022-11-11T09:53:38.924Z,17.88
2022-11-11T09:56:31.520Z,18.30
2022-11-11T09:59:21.669Z,19.13
2022-11-11T10:02:28.521Z,15.23
2022-11-11T10:05:28.885Z,16.67
2022-11-11T10:08:44.800Z,17.05
2022-11-11T10:11:56.061Z,19.00
2022-11-11T10:14:51.730Z,19.45
2022-11-11T10:17:52.953Z,19.52
2022-11-11T10:20:45.568Z,17.95
2022-11-11T10:23:40.154Z,18.40
2022-11-11T10:26:37.923Z,16.02
2022-11-11T10:29:27.806Z,18.30
2022-11-11T10:32:49.999Z,16.92
2022-11-11T10:35:39.619Z,18.77
2022-11-11T10:38:47.132Z,13.68
2022-11-11T10:41:49.082Z,19.67
2022-11-11T10:44:36.899Z,15.73
2022-11-11T10:47:59.001Z,14.00
2022-11-11T10:50:50.366Z,20.88
2022-11-11T10:54:11.441Z,14.02
2022-11-11T10:57:00.257Z,17.50
2022-11-11T10:59:53.680Z,14.77
2022-11-11T11:03:05.361Z,13.77
2022-11-11T11:06:00.248Z,12.90
2022-11-11T11:09:02.535Z,14.27
2022-11-11T11:11:55.534Z,13.10
2022-11-11T11:14:44.291Z,11.48
2022-11-11T11:17:37.760Z,13.02
2022-11-11T11:20:23.864Z,11.30
2022-11-11T11:23:09.156Z,10.85
2022-11-11T11:25:58.087Z,14.35
2022-11-11T11:28:57.903Z,11.20
2022-11-11T11:31:43.801Z,10.18
2022-11-11T11:34:59.951Z,13.82
2022-11-11T11:37:52.093Z,10.57
2022-11-11T11:43:46.209Z,11.02
2022-11-11T11:46:41.276Z,9.93
2022-11-11T11:49:44.344Z,12.52
2022-11-11T11:52:53.748Z,12.27
2022-11-11T11:56:06.794Z,11.85
2022-11-11T11:59:25.398Z,9.93
2022-11-11T12:02:26.247Z,9.77
2022-11-11T12:05:39.322Z,11.70
2022-11-11T12:08:31.060Z,8.05
2022-11-11T12:11:29.107Z,11.30
2022-11-11T12:14:23.830Z,13.90
2022-11-11T12:17:36.073Z,9.50
2022-11-11T12:20:29.234Z,7.50
2022-11-11T12:23:44.232Z,7.80
2022-11-11T12:26:50.919Z,9.27
2022-11-11T12:30:02.734Z,7.57
2022-11-11T12:33:26.480Z,8.32
2022-11-11T12:36:51.873Z,8.10
2022-11-11T12:39:50.578Z,8.80
2022-11-11T12:42:48.603Z,7.47
2022-11-11T12:45:54.863Z,8.25
2022-11-11T12:49:02.673Z,9.48
2022-11-11T12:52:10.829Z,6.45
2022-11-11T12:55:12.744Z,8.23
2022-11-11T12:58:07.689Z,8.73
2022-11-11T13:01:15.112Z,8.45
2022-11-11T13:04:27.779Z,8.77
2022-11-11T13:07:55.117Z,8.00
2022-11-11T13:11:06.258Z,8.65
2022-11-11T13:14:26.996Z,6.53
2022-11-11T13:17:14.117Z,5.45
2022-11-11T13:20:17.055Z,6.60
2022-11-11T13:23:02.801Z,5.88
2022-11-11T13:26:01.264Z,7.15
2022-11-11T13:28:50.091Z,4.57
2022-11-11T13:31:49.355Z,11.60
2022-11-11T13:34:35.902Z,14.95
2022-11-11T13:37:33.502Z,7.85
2022-11-11T13:40:49.460Z,7.72
2022-11-11T13:43:52.979Z,6.03
2022-11-11T13:46:49.778Z,7.50
2022-11-11T13:49:52.811Z,6.88
2022-11-11T13:52:45.408Z,4.82
2022-11-11T13:55:43.275Z,4.90
2022-11-11T13:58:35.441Z,6.47
2022-11-11T14:01:24.079Z,5.47
2022-11-11T14:04:27.766Z,6.50
2022-11-11T14:07:47.154Z,4.90
2022-11-11T14:10:50.457Z,5.43
2022-11-11T14:13:37.509Z,7.80
2022-11-11T14:16:36.145Z,4.80
2022-11-11T14:19:24.590Z,5.00
2022-11-11T14:22:32.321Z,8.18
2022-11-11T14:25:28.920Z,4.97
2022-11-11T14:28:29.888Z,4.70
2022-11-11T14:31:16.201Z,6.32
2022-11-11T14:34:48.105Z,5.47
2022-11-11T14:38:16.609Z,4.20
2022-11-11T14:41:39.957Z,5.18
2022-11-11T14:44:25.893Z,5.55
2022-11-11T14:47:19.689Z,6.95
2022-11-11T14:50:30.779Z,3.83
2022-11-11T14:53:25.979Z,3.75
2022-11-11T14:56:18.096Z,4.10
2022-11-11T14:59:14.378Z,4.88
2022-11-11T15:02:01.031Z,5.45
2022-11-11T15:04:53.207Z,3.90
2022-11-11T15:08:34.952Z,4.65
2022-11-11T15:12:17.267Z,4.43
2022-11-11T15:15:22.558Z,6.93
2022-11-11T15:18:23.387Z,4.53
2022-11-11T15:21:49.916Z,7.83
2022-11-11T15:24:51.700Z,5.43
2022-11-11T15:27:58.778Z,8.90
2022-11-11T15:31:10.167Z,121.13
2022-11-11T15:34:40.136Z,44.35
2022-11-11T15:37:28.200Z,57.03
2022-11-11T15:40:24.795Z,30.70
2022-11-11T15:46:08.459Z,24.67
2022-11-11T15:48:59.893Z,8.48
2022-11-11T15:52:19.366Z,11.02
2022-11-11T15:56:21.214Z,8.25
2022-11-11T15:59:29.960Z,5.72
2022-11-11T16:09:30.315Z,11.02
2022-11-11T16:12:22.854Z,13.23
2022-11-11T16:15:24.709Z,9.60
2022-11-11T16:18:34.381Z,12.75
2022-11-11T16:21:30.310Z,8.63
2022-11-11T16:24:29.881Z,10.77
2022-11-11T16:27:22.450Z,7.75
2022-11-11T16:30:38.874Z,13.38
2022-11-11T16:33:27.692Z,11.95
2022-11-11T16:36:13.828Z,7.28
2022-11-11T16:39:30.449Z,12.07
2022-11-11T16:42:33.324Z,8.57
2022-11-11T16:45:21.870Z,12.63
2022-11-11T16:48:39.881Z,9.73
2022-11-11T16:51:44.638Z,8.70
2022-11-11T16:54:37.774Z,14.07
2022-11-11T16:57:30.080Z,11.60
2022-11-11T17:00:26.502Z,17.95
2022-11-11T17:03:18.153Z,23.10
2022-11-11T17:06:17.176Z,18.98
2022-11-11T17:09:31.935Z,17.48
2022-11-11T17:12:33.193Z,15.52
2022-11-11T17:15:22.187Z,12.55
2022-11-11T17:18:09.276Z,16.65
2022-11-11T17:20:56.000Z,14.20
2022-11-11T17:23:41.350Z,17.40
2022-11-11T17:26:35.045Z,15.23
2022-11-11T17:29:20.863Z,16.10
2022-11-11T17:32:15.691Z,16.23
2022-11-11T17:35:11.325Z,15.40
2022-11-11T17:38:00.739Z,16.35
2022-11-11T17:40:52.635Z,19.27
2022-11-11T17:43:41.326Z,19.92
2022-11-11T17:49:55.245Z,18.40
2022-11-11T17:52:45.150Z,29.20
2022-11-11T17:55:35.103Z,29.13
2022-11-11T17:58:21.510Z,23.45
2022-11-11T18:01:15.458Z,24.20
2022-11-11T18:04:09.604Z,20.80
2022-11-11T18:06:57.728Z,18.70
2022-11-11T18:09:46.545Z,22.58
2022-11-11T18:12:37.695Z,19.27
2022-11-11T18:15:23.259Z,20.20
2022-11-11T18:18:16.098Z,17.52
2022-11-11T18:21:14.463Z,21.48
2022-11-11T18:24:11.364Z,18.80
2022-11-11T18:27:03.500Z,19.10
2022-11-11T18:29:49.392Z,17.60
2022-11-11T18:32:46.107Z,27.00
2022-11-11T18:38:58.696Z,31.27
2022-11-11T18:41:52.040Z,33.40
2022-11-11T18:44:41.260Z,82.50
2022-11-11T18:47:33.896Z,30.98
2022-11-11T18:50:24.149Z,32.72
2022-11-11T18:53:09.993Z,25.88
2022-11-11T18:55:55.832Z,23.00
2022-11-11T18:59:04.269Z,20.55
2022-11-11T19:01:54.473Z,20.70
2022-11-11T19:04:47.983Z,21.00
2022-11-11T19:07:44.425Z,23.35
2022-11-11T19:10:31.040Z,18.27
2022-11-11T19:13:17.183Z,20.25
2022-11-11T19:16:20.188Z,20.77
2022-11-11T19:19:29.005Z,22.80
2022-11-11T19:22:24.365Z,21.05
2022-11-11T19:25:13.223Z,18.52
2022-11-11T19:28:01.089Z,22.33
2022-11-11T19:30:53.982Z,25.08
2022-11-11T19:33:41.852Z,30.30
2022-11-11T19:36:30.942Z,24.83
2022-11-11T19:39:22.283Z,28.42
2022-11-11T19:42:08.386Z,20.75
2022-11-11T19:44:54.859Z,24.20
2022-11-11T19:47:40.629Z,22.90
2022-11-11T19:50:37.082Z,27.17
2022-11-11T19:53:24.593Z,27.65
2022-11-11T19:56:14.777Z,31.98
2022-11-11T19:59:05.382Z,28.55
2022-11-11T20:01:54.240Z,26.40
2022-11-11T20:04:41.726Z,31.42
2022-11-11T20:07:27.591Z,29.20
2022-11-11T20:10:23.310Z,34.42
2022-11-11T20:13:14.660Z,34.55
2022-11-11T20:16:06.639Z,46.80
2022-11-11T20:18:57.158Z,47.80
2022-11-11T20:21:49.340Z,45.50
2022-11-11T20:24:38.032Z,41.15
2022-11-11T20:27:26.368Z,45.72
2022-11-11T20:30:20.102Z,43.67
2022-11-11T20:33:20.461Z,45.80
2022-11-11T20:36:09.790Z,42.47
2022-11-11T20:39:04.454Z,42.47
2022-11-11T20:41:52.113Z,39.88
2022-11-11T20:44:37.339Z,36.40
2022-11-11T20:47:28.901Z,39.33
2022-11-11T20:50:27.390Z,34.15
2022-11-11T20:53:15.910Z,32.40
2022-11-11T20:56:05.161Z,40.42
2022-11-11T20:58:53.896Z,41.42
2022-11-11T21:01:44.680Z,39.20
2022-11-11T21:04:34.410Z,40.22
2022-11-11T21:07:21.347Z,45.97
2022-11-11T21:10:15.666Z,39.60
2022-11-11T21:13:06.570Z,33.75
2022-11-11T21:15:59.272Z,47.88
2022-11-11T21:18:48.461Z,80.05
2022-11-11T21:21:40.335Z,78.35
2022-11-11T21:24:27.245Z,72.15
2022-11-11T21:27:35.116Z,66.03
2022-11-11T21:30:25.799Z,62.35
2022-11-11T21:33:21.546Z,49.08
2022-11-11T21:36:27.458Z,54.65
2022-11-11T21:39:13.208Z,80.45
2022-11-11T21:41:59.358Z,186.05
2022-11-11T21:44:46.298Z,185.48
2022-11-11T21:47:38.381Z,114.68
2022-11-11T21:50:24.069Z,132.13
2022-11-11T21:53:10.467Z,122.63
2022-11-11T21:56:07.794Z,115.70
2022-11-11T21:58:57.218Z,85.20
2022-11-11T22:01:47.234Z,66.00
2022-11-11T22:04:35.873Z,59.47
2022-11-11T22:07:27.237Z,66.13
2022-11-11T22:10:13.515Z,62.90
2022-11-11T22:13:03.644Z,68.30
2022-11-11T22:16:02.375Z,100.72
2022-11-11T22:18:59.440Z,123.75
2022-11-11T22:21:47.145Z,178.15
2022-11-11T22:24:35.064Z,144.98
2022-11-11T22:27:21.438Z,122.78
2022-11-11T22:30:08.286Z,104.80
2022-11-11T22:32:54.854Z,87.03
2022-11-11T22:35:42.914Z,75.10
2022-11-11T22:38:33.599Z,93.20
2022-11-11T22:41:22.029Z,82.28
2022-11-11T22:44:09.671Z,108.80
2022-11-11T22:46:57.529Z,176.05
2022-11-11T22:49:46.426Z,137.57
2022-11-11T22:52:34.778Z,220.98
2022-11-11T22:55:20.440Z,194.65
2022-11-11T22:58:07.266Z,92.07
2022-11-11T23:00:52.835Z,67.10
2022-11-11T23:03:44.376Z,77.05
2022-11-11T23:06:32.928Z,67.97
2022-11-11T23:09:18.605Z,82.90
2022-11-11T23:12:04.717Z,110.10
2022-11-11T23:14:50.325Z,99.97
2022-11-11T23:17:37.044Z,64.75
2022-11-11T23:20:23.830Z,55.55
2022-11-11T23:23:09.979Z,52.47
2022-11-11T23:26:03.478Z,42.55
2022-11-11T23:28:49.235Z,33.30
2022-11-11T23:31:34.654Z,34.35
2022-11-11T23:34:25.011Z,35.13
2022-11-11T23:37:16.768Z,34.78
2022-11-11T23:40:04.659Z,37.15
2022-11-11T23:42:52.956Z,33.95
2022-11-11T23:45:40.447Z,31.13
2022-11-11T23:48:27.889Z,31.83
2022-11-11T23:51:19.964Z,30.35
2022-11-11T23:54:05.756Z,30.75
2022-11-11T23:56:53.653Z,34.15
